Viernes, 21 de Noviembre del 2014

portal contactenos mapa del sitio buscar Revisar Correo Corporativo

|Reporte METAR por Reginal » ||Reporte TAF por Reginal » ||Reporte METAR, TAF y SIN覲TICO »

Reporte METAR por Regional

|| La Paz || Santa Cruz || Cochabamba || Beni - Pando ||

Informe METAR emitido cada hora.

Regional La Paz

ESTACIÓN

AEROPUERTO

HORA UTC

DESCRIPCIÓN

SLRY

Reyes

14-18S|67-21W

16:00

SLRY 211600Z 31003KT 9999 BKN017 BKN200 29/24 Q1012 A2989 AC HR73 RWY OPR 1 000M=

SLRQ

Rurrenabaque

14-25S|67-29W

16:00

SLRQ 211600Z 36010KT 9999 BKN017 BKN200 29/26 Q1010 A2985 HR79=

SLAP

Apolo

14-44S|68-24W

-

Mensaje no Recibido

SLSB

San Borja

14-51S|66-44W

16:00

SLSB 211600Z 32007KT 9999 BKN020 29/24 Q1010 A2983 HR72 RWY NML=

SLLP

Internaci贸nal El Alto

16-08S|68-10W

16:00

SLLP 211600Z 14009KT 9999 SCT017 FEW020CB 15/00 Q1035 A3058 626.3 P94// CB/NE/NW AC/CI HR38 NOSIG=

SLCN

Chara帽a

17-35S|69-25W

-

Mensaje no Recibido

SLOR

Oruro

17-57S|67-04W

16:00

SLOR 211600Z 32006KT 9999 FEW017 18/03 Q1032 A3049 654.2 HR38=

SLUY

Uyuni

20-27S|62-52W

16:00

SLUY 211600Z 36005KT 9999 NSC 15/03 Q1031 A3045 656.5 HR53=

Regional Cochabamba

ESTACIÓN

AEROPUERTO

HORA UTC

DESCRIPCIÓN

SLCB

Cochabamba

17-25S|66-10W

16:00

SLCB 211600Z 18004KT 9999 SCT027 FEW030CB SCT200 27/06 Q1021 A3017 748.9 HR25 FU CB NW/NE NOSIG=

SLSU

Sucre

19-00S|65-17W

16:00

SLSU 211600Z 03011KT 9999 FEW020 FEW030CB 21/10 Q1026 A3031 HR48 CB DIST W=

SLPO

Potos铆

19-32S|65-43W

15:00

SLPO 211500Z 00000KT 9999 FEW020 15/03 Q1034 A3053 HR40=

SLAG

Monteagudo

19-49S|63-58W

15:00

SLAG 211500Z 09006KT 9999 BKN070 26/17 Q1016 A3000 HR59 FU RWY CLSD=

SLVM

Villamontes

21-15S|63-24W

16:00

SLVM 211600Z 36006KT 9999 BKN015 28/21 Q1010 A2983 HR67=

SLTJ

Tarija

21-33S|64-42W

16:00

SLTJ 211600Z 14007KT 9999 FEW033 FEW036TCU 27/15 Q1014 A2996 HR48 TCU W=

SLYA

Yacuiba

21-57S|63-39W

16:00

SLYA 211600Z 36008KT 9999 BKN023 OVC070 25/21 Q1013 A2991 HR80=

SLBJ

Bermejo

22-46S|64-18W

15:00

SLBJ 211500Z 18006KT 9999 SCT013 OVC070 25/22 Q1009 A2980 HR83=

Regional Santa Cruz

ESTACIÓN

AEROPUERTO

HORA UTC

DESCRIPCIÓN

SLAS

Ascenci贸n de Guarayos

15-55S|63-09W

15:00

SLAS 211500Z 35008KT 9999 BKN015 OVC200 29/23 Q1013 A2992 HR68 RWY NML=

SLCP

Concepci贸n

16-08S|62-01W

15:00

SLCP 211500Z 33004KT 9999 BKN012 OVC070 24/23 Q1015 A2997 HR92 RWY WET OPR=

SLJV

San Javier

16-16S|62-28W

15:00

SLJV 211500Z 36010KT 9999 BKN013 BKN200 27/22 Q1011 A2985 HR78 RWY HUM OPR=

SLTI

San Mat铆as

16-20S|58-24W

15:00

SLTI 211500Z 00000KT 9999 SCT017 32/25 Q1016 A3000 HR68 RWY HUM OPR=

SLSI

San Ignacio de Velasco

16-23S|60-57W

15:00

SLSI 211500Z 30006KT 9999 BKN017 27/23 Q1012 A2988 HR76 RWY NML =

SLVR

Internaci贸nal Viru Viru

17-38S|63-08W

15:00

SLVR 211500Z 33015KT 9999 BKN017 29/21 Q1011 A2986 HR62 NOSIG=

SLET

El Trompillo

17-48S|63-10W

15:00

SLET 211500Z 33015G25KT 9999 BKN016 BKN200 29/22 Q1010 A2984 HR66 NOSIG=

SLJE

San Jos茅 de Chiquitos

17-49S|60-44W

15:00

SLJE 211500Z 00000KT 9999 BKN017 OVC200 31/23 Q1014 A2994 HR63 RWY NML=

SLRB

Robor茅

18-19S|59-45W

16:00

SLRB 211600Z 36006KT 9999 SCT020 SCT200 31/24 Q1012 A2988 HR68 RWY NML=

SLVG

Valle Grande

18-28S|64-05W

15:00

SLVG 211500Z 36010KT 9999 BKN027 22/15 Q1023 A3021 HR61 FU RWY NML=

SLPS

Puerto Su谩rez

18-58S|57-49W

15:00

SLPS 211500Z 00000KT 9999 BKN017 FEW027CB BKN200 31/26 Q1011 A2986 HR73 CB W/NW=

SLCA

Camiri

20-00S|63-31W

15:00

SLCA 211500Z 00000KT 9999 OVC015 23/19 Q1014 A2994 HR78 RWY NML =

Regional Beni

ESTACIÓN

AEROPUERTO

HORA UTC

DESCRIPCIÓN

SLGM

Guayaramer铆n

10-49S|65-20W

15:00

SLGM 211500Z 36010KT 9999 BKN012 FEW020CB BKN080 26/23 Q1013 A2993 HR83 CB NW=

SLRI

Riberalta

11-00S|66-04W

15:00

SLRI 211500Z 03006KT 8000 VCSH BKN012 FEW020CB BKN080 27/23 Q1013 A2992 HR83 CB/SH N/NW=

SLCO

Cobija

11-02S|68-47W

16:00

SLCO 211600Z 30005KT 9999 BKN005 BKN070 27/24 Q1012 A2989 984.6 HR82=

SLJO

San Joaquin

13-03S|64-39W

15:00

SLJO 211500Z 32008KT 9999 SCT017 BKN080 29/24 Q1011 A2986 HR77 RWY HUM OPR=

SLMG

San Magdalena

13-15S|64-03W

15:00

SLMG 211500Z 32004KT 9999 SCT015 BKN080 27/24 Q1012 A2988 HR81 RWY NML=

SLRA

San Ram贸n

13-15S|64-36W

15:00

SLRA 211500Z 32008KT 9999 SCT017 BKN080 29/24 Q1011 A2988 HR78 RWY HUM OPR=

SLBU

Baures

13-39S|63-42W

15:00

SLBU 211500Z 35004KT 8000 TS VCSH SCT015 FEW023CB OVC070 25/25 Q1013 A2992 HR96 RERA CB/TS/SH NE/E/SE RWY WET OPR C206=

SLSA

Santa Ana de Yacuma

13-45S|65-26W

16:00

SLSA 211600Z 32008KT 9999 BKN017 31/24 Q1009 A2980 HR64 AC=

SLSR

Santa Rosa

14-04S|66-47W

15:00

SLSR 211500Z 35005KT 9999 SCT017 31/26 Q1009 A2981 HR76 RWY NML=

SLTR

Trinidad

14-49S|64-54W

16:00

SLTR 211600Z 29006KT 260V360 8000 VCSH FEW017 FEW020CB BKN200 30/24 Q1011 A2986 992.8 HR69 CB/SH N/NE/NW TEMPO SHRA=

SLSM

San Ignacio de Moxos

14-57S|65-38W

15:00

SLSM 211500Z 36010KT 9999 BKN015 BKN200 27/23 Q1010 A2984 HR79 RWY NML=